createdAt,value
2017-06-16T00:00:35.902Z,77.42
2017-06-16T00:01:46.412Z,77.04
2017-06-16T00:02:56.668Z,77.51
2017-06-16T00:04:06.927Z,78.57
2017-06-16T00:05:17.186Z,78.19
2017-06-16T00:06:27.441Z,78.57
2017-06-16T00:07:37.388Z,77.8
2017-06-16T00:08:47.369Z,77.23
2017-06-16T00:09:57.634Z,76.46
2017-06-16T00:11:07.584Z,76.37
2017-06-16T00:12:17.850Z,76.75
2017-06-16T00:13:28.119Z,75.89
2017-06-16T00:14:38.394Z,76.56
2017-06-16T00:15:48.343Z,77.7
2017-06-16T00:16:58.600Z,78.95
2017-06-16T00:18:08.544Z,78.95
2017-06-16T00:19:18.802Z,79.43
2017-06-16T00:20:28.784Z,80.54
2017-06-16T00:21:38.735Z,80.06
2017-06-16T00:22:48.993Z,80.44
2017-06-16T00:23:58.937Z,79.77
2017-06-16T00:25:08.882Z,79.68
2017-06-16T00:26:19.143Z,80.16
2017-06-16T00:27:29.091Z,80.16
2017-06-16T00:28:39.350Z,80.44
2017-06-16T00:29:49.631Z,80.54
2017-06-16T00:30:59.895Z,80.73
2017-06-16T00:32:10.159Z,81.02
2017-06-16T00:33:19.791Z,81.97
2017-06-16T00:34:30.053Z,81.78
2017-06-16T00:35:40.314Z,81.4
2017-06-16T00:36:49.947Z,80.92
2017-06-16T00:38:00.207Z,80.82
2017-06-16T00:39:10.473Z,81.11
2017-06-16T00:40:20.732Z,81.02
2017-06-16T00:41:30.996Z,81.21
2017-06-16T00:42:41.258Z,80.92
2017-06-16T00:43:51.522Z,81.68
2017-06-16T00:45:01.781Z,82.64
2017-06-16T00:46:11.731Z,82.26
2017-06-16T00:47:21.993Z,81.59
2017-06-16T00:48:32.252Z,80.82
2017-06-16T00:49:42.209Z,80.73
2017-06-16T00:50:52.489Z,80.44
2017-06-16T00:52:02.759Z,81.02
2017-06-16T00:53:12.705Z,80.25
2017-06-16T00:54:22.975Z,82.45
2017-06-16T00:55:33.240Z,83.31
2017-06-16T00:56:43.542Z,82.64
2017-06-16T00:57:53.489Z,82.74
2017-06-16T00:59:03.749Z,82.07
2017-06-16T01:00:13.385Z,81.49
2017-06-16T01:01:23.650Z,81.49
2017-06-16T01:02:33.319Z,82.26
2017-06-16T01:03:43.590Z,82.54
2017-06-16T01:04:53.534Z,82.54
2017-06-16T01:06:03.794Z,82.74
2017-06-16T01:07:13.736Z,81.78
2017-06-16T01:08:23.996Z,82.07
2017-06-16T01:09:34.264Z,81.88
2017-06-16T01:10:44.214Z,81.49
2017-06-16T01:11:54.160Z,82.17
2017-06-16T01:13:04.422Z,82.17
2017-06-16T01:14:14.690Z,82.64
2017-06-16T01:15:24.953Z,82.17
2017-06-16T01:16:34.896Z,82.07
2017-06-16T01:17:44.839Z,81.4
2017-06-16T01:18:54.783Z,83.98
2017-06-16T01:20:04.732Z,83.98
2017-06-16T01:21:14.681Z,86.33
2017-06-16T01:22:24.947Z,87.95
2017-06-16T01:23:35.214Z,88.15
2017-06-16T01:24:45.480Z,87.09
2017-06-16T01:25:55.745Z,86.52
2017-06-16T01:27:05.686Z,85.57
2017-06-16T01:28:15.950Z,86.04
2017-06-16T01:29:26.244Z,85.38
2017-06-16T01:30:36.204Z,85.47
2017-06-16T01:31:46.469Z,85.47
2017-06-16T01:32:56.737Z,84.8
2017-06-16T01:34:07.007Z,84.42
2017-06-16T01:35:17.272Z,85.28
2017-06-16T01:36:27.536Z,86.43
2017-06-16T01:37:37.797Z,86.71
2017-06-16T01:38:47.744Z,87.48
2017-06-16T01:39:57.724Z,87.95
2017-06-16T01:41:07.995Z,86.9
2017-06-16T01:42:18.254Z,87.38
2017-06-16T01:43:28.521Z,87.95
2017-06-16T01:44:38.785Z,87.57
2017-06-16T01:45:48.732Z,86.9
2017-06-16T01:46:58.997Z,86.52
2017-06-16T01:48:08.946Z,86.33
2017-06-16T01:49:19.206Z,86.61
2017-06-16T01:50:29.467Z,86.23
2017-06-16T01:51:39.733Z,86.04
2017-06-16T01:52:49.684Z,87.95
2017-06-16T01:53:59.943Z,87.91
2017-06-16T01:55:10.205Z,87.53
2017-06-16T01:56:19.839Z,87.48
2017-06-16T01:57:30.104Z,87.38
2017-06-16T01:58:40.051Z,87.72
2017-06-16T01:59:49.683Z,88.01
2017-06-16T02:00:59.943Z,87.82
2017-06-16T02:02:10.202Z,88.29
2017-06-16T02:03:20.460Z,88.29
2017-06-16T02:04:30.412Z,88.43
2017-06-16T02:05:40.359Z,87.95
2017-06-16T02:06:50.310Z,87.82
2017-06-16T02:08:00.570Z,88.15
2017-06-16T02:09:10.514Z,87.53
2017-06-16T02:10:20.465Z,87.57
2017-06-16T02:11:30.724Z,88.01
2017-06-16T02:12:40.989Z,88.2
2017-06-16T02:13:50.618Z,87.57
2017-06-16T02:15:00.569Z,87.95
2017-06-16T02:16:10.836Z,87.62
2017-06-16T02:17:21.099Z,87.76
2017-06-16T02:18:31.045Z,88.15
2017-06-16T02:19:41.303Z,87.95
2017-06-16T02:20:51.566Z,88.62
2017-06-16T02:22:01.830Z,89.01
2017-06-16T02:23:11.780Z,88.87
2017-06-16T02:24:22.040Z,88.72
2017-06-16T02:25:32.307Z,88.34
2017-06-16T02:26:42.567Z,88.24
2017-06-16T02:27:52.834Z,88.77
2017-06-16T02:29:03.096Z,87.53
2017-06-16T02:30:13.354Z,88.05
2017-06-16T02:31:23.620Z,87.91
2017-06-16T02:32:33.565Z,87.72
2017-06-16T02:33:43.829Z,88.1
2017-06-16T02:34:54.084Z,87.82
2017-06-16T02:36:04.374Z,87.66
2017-06-16T02:37:14.313Z,87.66
2017-06-16T02:38:24.577Z,87.34
2017-06-16T02:39:34.842Z,87.48
2017-06-16T02:40:45.100Z,87.72
2017-06-16T02:41:55.383Z,87.72
2017-06-16T02:43:05.643Z,88.34
2017-06-16T02:44:15.906Z,88.01
2017-06-16T02:45:25.849Z,87.62
2017-06-16T02:46:36.112Z,88.39
2017-06-16T02:47:46.062Z,88.01
2017-06-16T02:48:56.324Z,88.39
2017-06-16T02:50:06.588Z,88.48
2017-06-16T02:51:16.851Z,88.29
2017-06-16T02:52:27.113Z,89.34
2017-06-16T02:53:37.373Z,88.68
2017-06-16T02:54:47.004Z,88.58
2017-06-16T02:55:57.271Z,88.2
2017-06-16T02:57:07.267Z,87.53
2017-06-16T02:58:17.523Z,88.34
2017-06-16T02:59:27.781Z,88.77
2017-06-16T03:00:37.726Z,89.73
2017-06-16T03:01:47.994Z,90.01
2017-06-16T03:02:58.252Z,90.11
2017-06-16T03:04:08.510Z,90.01
2017-06-16T03:05:18.810Z,89.63
2017-06-16T03:06:28.754Z,90.39
2017-06-16T03:07:39.017Z,90.2
2017-06-16T03:08:49.276Z,90.3
2017-06-16T03:09:59.551Z,90.2
2017-06-16T03:11:09.501Z,90.68
2017-06-16T03:12:19.764Z,91.64
2017-06-16T03:13:30.023Z,92.02
2017-06-16T03:14:39.971Z,91.83
2017-06-16T03:15:49.605Z,90.88
2017-06-16T03:16:59.876Z,91.25
2017-06-16T03:18:10.146Z,91.54
2017-06-16T03:19:20.406Z,91.06
2017-06-16T03:20:30.661Z,91.06
2017-06-16T03:21:40.921Z,90.49
2017-06-16T03:22:51.186Z,90.49
2017-06-16T03:24:01.449Z,90.11
2017-06-16T03:25:11.086Z,90.11
2017-06-16T03:26:21.348Z,89.53
2017-06-16T03:27:31.289Z,89.44
2017-06-16T03:28:41.233Z,89.53
2017-06-16T03:29:51.492Z,89.53
2017-06-16T03:31:01.794Z,89.34
2017-06-16T03:32:12.057Z,89.73
2017-06-16T03:33:22.001Z,90.3
2017-06-16T03:34:32.259Z,89.92
2017-06-16T03:35:42.525Z,89.73
2017-06-16T03:36:52.785Z,89.82
2017-06-16T03:38:03.082Z,89.53
2017-06-16T03:39:13.023Z,89.29
2017-06-16T03:40:22.971Z,89.58
2017-06-16T03:41:33.227Z,89.48
2017-06-16T03:42:43.485Z,89.15
2017-06-16T03:43:53.742Z,89.39
2017-06-16T03:45:04.002Z,89.25
2017-06-16T03:46:14.255Z,89.77
2017-06-16T03:47:24.510Z,90.11
2017-06-16T03:48:34.774Z,91.49
2017-06-16T03:49:44.722Z,91.83
2017-06-16T03:50:54.982Z,91.45
2017-06-16T03:52:04.926Z,92.11
2017-06-16T03:53:14.877Z,91.64
2017-06-16T03:54:24.828Z,92.11
2017-06-16T03:55:35.091Z,92.02
2017-06-16T03:56:45.359Z,91.45
2017-06-16T03:57:55.305Z,91.83
2017-06-16T03:59:04.624Z,91.64
2017-06-16T04:00:14.894Z,91.45
2017-06-16T04:01:25.158Z,91.74
2017-06-16T04:02:34.794Z,92.02
2017-06-16T04:03:45.055Z,92.3
2017-06-16T04:04:55.313Z,92.11
2017-06-16T04:06:05.579Z,92.11
2017-06-16T04:07:15.843Z,92.11
2017-06-16T04:08:26.102Z,92.79
2017-06-16T04:09:36.050Z,93.26
2017-06-16T04:10:46.312Z,93.26
2017-06-16T04:11:56.575Z,92.79
2017-06-16T04:13:06.523Z,92.88
2017-06-16T04:14:16.783Z,93.07
2017-06-16T04:15:26.735Z,92.5
2017-06-16T04:16:36.995Z,92.02
2017-06-16T04:17:46.950Z,92.69
2017-06-16T04:18:57.214Z,92.4
2017-06-16T04:20:07.479Z,92.88
2017-06-16T04:21:17.744Z,92.3
2017-06-16T04:22:28.007Z,92.5
2017-06-16T04:23:38.275Z,92.4
2017-06-16T04:24:48.540Z,92.07
2017-06-16T04:25:57.547Z,91.68
2017-06-16T04:27:07.812Z,91.11
2017-06-16T04:28:18.075Z,90.34
2017-06-16T04:29:28.015Z,90.92
2017-06-16T04:30:38.276Z,90.53
2017-06-16T04:31:48.533Z,89.87
2017-06-16T04:32:58.786Z,90.82
2017-06-16T04:34:09.050Z,91.2
2017-06-16T04:35:19.312Z,91.68
2017-06-16T04:36:29.577Z,91.11
2017-06-16T04:37:39.833Z,91.02
2017-06-16T04:38:50.090Z,90.34
2017-06-16T04:40:00.354Z,90.25
2017-06-16T04:41:09.985Z,90.25
2017-06-16T04:42:20.252Z,90.2
2017-06-16T04:43:30.519Z,89.81
2017-06-16T04:44:40.786Z,89.72
2017-06-16T04:45:51.059Z,89.53
2017-06-16T04:47:01.333Z,89.53
2017-06-16T04:48:11.593Z,89.24
2017-06-16T04:49:21.857Z,88.48
2017-06-16T04:50:32.157Z,88.29
2017-06-16T04:51:42.417Z,88.29
2017-06-16T04:52:52.682Z,87.56
2017-06-16T04:54:02.627Z,87.37
2017-06-16T04:55:12.893Z,88.13
2017-06-16T04:56:23.159Z,88.04
2017-06-16T04:57:33.429Z,87.66
2017-06-16T04:58:43.687Z,87.66
2017-06-16T04:59:53.951Z,86.99
2017-06-16T05:01:03.904Z,86.9
2017-06-16T05:02:14.169Z,87.27
2017-06-16T05:03:24.113Z,87.37
2017-06-16T05:04:34.378Z,87.18
2017-06-16T05:05:44.641Z,87.56
2017-06-16T05:06:54.590Z,87.27
2017-06-16T05:08:04.539Z,87.27
2017-06-16T05:09:14.796Z,87.8
2017-06-16T05:10:24.737Z,86.55
2017-06-16T05:11:34.999Z,86.94
2017-06-16T05:12:45.264Z,86.84
2017-06-16T05:13:55.231Z,86.94
2017-06-16T05:15:05.201Z,86.36
2017-06-16T05:16:15.470Z,86.08
2017-06-16T05:17:25.732Z,84.78
2017-06-16T05:18:36.014Z,84.2
2017-06-16T05:19:45.977Z,84.3
2017-06-16T05:20:56.244Z,83.92
2017-06-16T05:22:06.204Z,82.96
2017-06-16T05:23:16.166Z,83.44
2017-06-16T05:24:26.428Z,83.05
2017-06-16T05:25:36.376Z,82.09
2017-06-16T05:26:46.641Z,86.12
2017-06-16T05:27:56.590Z,87.37
2017-06-16T05:29:06.547Z,87.94
2017-06-16T05:30:16.831Z,87.84
2017-06-16T05:31:27.131Z,87.55
2017-06-16T05:32:37.401Z,87.94
2017-06-16T05:33:47.669Z,87.84
2017-06-16T05:34:57.985Z,88.13
2017-06-16T05:36:08.344Z,87.51
2017-06-16T05:37:18.609Z,87.55
2017-06-16T05:38:28.560Z,87.37
2017-06-16T05:39:38.509Z,86.88
2017-06-16T05:40:48.467Z,86.98
2017-06-16T05:41:58.417Z,86.41
2017-06-16T05:43:08.368Z,85.83
2017-06-16T05:44:18.629Z,86.31
2017-06-16T05:45:28.890Z,85.93
2017-06-16T05:46:38.847Z,85.54
2017-06-16T05:47:48.797Z,84.88
2017-06-16T05:48:58.744Z,84.39
2017-06-16T05:50:08.691Z,85.01
2017-06-16T05:51:18.963Z,84.72
2017-06-16T05:52:29.227Z,83.95
2017-06-16T05:53:39.487Z,84.63
2017-06-16T05:54:49.747Z,83.48
2017-06-16T05:56:00.013Z,83.09
2017-06-16T05:57:09.655Z,84.15
2017-06-16T05:58:19.918Z,84.15
2017-06-16T05:59:30.184Z,83.48
2017-06-16T06:00:40.449Z,82.65
2017-06-16T06:01:50.714Z,82.37
2017-06-16T06:03:00.987Z,82.18
2017-06-16T06:04:13.257Z,82.65
2017-06-16T06:05:23.520Z,82.37
2017-06-16T06:06:33.789Z,82.31
2017-06-16T06:07:44.061Z,81.26
2017-06-16T06:08:54.326Z,80.87
2017-06-16T06:10:04.596Z,80.11
2017-06-16T06:11:14.863Z,80.01
2017-06-16T06:12:25.150Z,79.14
2017-06-16T06:13:35.111Z,79.28
2017-06-16T06:14:45.060Z,78.8
2017-06-16T06:15:55.337Z,79.28
2017-06-16T06:17:05.603Z,78.9
2017-06-16T06:18:15.872Z,78.23
2017-06-16T06:19:26.140Z,78.8
2017-06-16T06:20:36.410Z,78.13
2017-06-16T06:21:46.356Z,78.13
2017-06-16T06:22:56.623Z,78.13
2017-06-16T06:24:06.888Z,77.26
2017-06-16T06:25:17.156Z,76.88
2017-06-16T06:26:27.422Z,77.59
2017-06-16T06:27:37.371Z,77.69
2017-06-16T06:28:47.630Z,76.54
2017-06-16T06:29:57.582Z,76.92
2017-06-16T06:31:07.847Z,77.01
2017-06-16T06:32:18.119Z,77.11
2017-06-16T06:33:28.071Z,76.82
2017-06-16T06:34:38.021Z,76.44
2017-06-16T06:35:48.285Z,76.67
2017-06-16T06:36:58.554Z,76.09
2017-06-16T06:38:08.515Z,75.9
2017-06-16T06:39:18.789Z,75.13
2017-06-16T06:40:29.062Z,75.32
2017-06-16T06:41:39.336Z,74.94
2017-06-16T06:42:49.608Z,74.94
2017-06-16T06:43:59.561Z,74.37
2017-06-16T06:45:09.835Z,74.27
2017-06-16T06:46:20.104Z,74.37
2017-06-16T06:47:30.367Z,74.08
2017-06-16T06:48:40.321Z,73.98
2017-06-16T06:49:50.594Z,74.27
2017-06-16T06:51:02.546Z,74.4
2017-06-16T06:52:12.812Z,73.92
2017-06-16T06:53:23.080Z,73.92
2017-06-16T06:54:33.349Z,74.02
2017-06-16T06:55:43.612Z,74.02
2017-06-16T06:56:53.588Z,74.02
2017-06-16T06:58:03.548Z,73.15
2017-06-16T06:59:13.500Z,73.73
2017-06-16T07:00:23.772Z,73.35
2017-06-16T07:01:34.046Z,73.06
2017-06-16T07:02:44.002Z,72.19
2017-06-16T07:03:54.271Z,72.38
2017-06-16T07:05:04.227Z,72.38
2017-06-16T07:06:14.499Z,71.81
2017-06-16T07:07:24.771Z,71.52
2017-06-16T07:08:35.041Z,71.81
2017-06-16T07:09:45.305Z,72.03
2017-06-16T07:10:55.572Z,71.84
2017-06-16T07:12:05.208Z,71.61
2017-06-16T07:13:14.844Z,71.55
2017-06-16T07:14:25.117Z,71.94
2017-06-16T07:15:35.068Z,71.84
2017-06-16T07:16:45.011Z,71.84
2017-06-16T07:17:55.272Z,71.46
2017-06-16T07:19:05.223Z,71.46
2017-06-16T07:20:15.490Z,72.19
2017-06-16T07:21:25.775Z,72.48
2017-06-16T07:22:36.057Z,72.77
2017-06-16T07:23:46.020Z,72.77
2017-06-16T07:24:55.976Z,73.44
2017-06-16T07:26:05.935Z,73.25
2017-06-16T07:27:15.893Z,72.77
2017-06-16T07:28:26.162Z,73.15
2017-06-16T07:29:36.433Z,72.73
2017-06-16T07:30:46.067Z,73.02
2017-06-16T07:31:55.761Z,73.6
2017-06-16T07:33:06.027Z,73.41
2017-06-16T07:34:16.292Z,74.08
2017-06-16T07:35:26.243Z,74.08
2017-06-16T07:36:36.509Z,74.23
2017-06-16T07:37:46.461Z,74.23
2017-06-16T07:38:56.409Z,74.33
2017-06-16T07:40:06.357Z,74.33
2017-06-16T07:41:16.307Z,73.85
2017-06-16T07:42:26.572Z,73.85
2017-06-16T07:43:36.842Z,74.13
2017-06-16T07:44:47.106Z,74.43
2017-06-16T07:45:57.372Z,74.58
2017-06-16T07:47:07.634Z,75.06
2017-06-16T07:48:17.898Z,75.06
2017-06-16T07:49:28.164Z,75.63
2017-06-16T07:50:38.425Z,75.73
2017-06-16T07:51:48.691Z,75.82
2017-06-16T07:52:58.954Z,76.31
2017-06-16T07:54:08.590Z,76.21
2017-06-16T07:55:18.861Z,76.5
2017-06-16T07:56:29.128Z,76.5
2017-06-16T07:57:38.764Z,76.69
2017-06-16T07:58:49.028Z,76.5
2017-06-16T07:59:59.288Z,76.21
2017-06-16T08:01:09.241Z,76.21
2017-06-16T08:02:19.510Z,75.73
2017-06-16T08:03:29.777Z,76.02
2017-06-16T08:04:39.737Z,77.17
2017-06-16T08:05:50.063Z,76.79
2017-06-16T08:06:59.699Z,76.4
2017-06-16T08:08:09.964Z,76.31
2017-06-16T08:09:19.605Z,76.4
2017-06-16T08:10:29.562Z,77.08
2017-06-16T08:11:39.826Z,76.88
2017-06-16T08:12:50.093Z,77.36
2017-06-16T08:14:00.364Z,76.73
2017-06-16T08:15:10.319Z,77.17
2017-06-16T08:16:20.583Z,76.92
2017-06-16T08:17:30.861Z,77.5
2017-06-16T08:18:40.832Z,76.34
2017-06-16T08:19:51.169Z,77.31
2017-06-16T08:21:01.441Z,77.21
2017-06-16T08:22:11.397Z,77.31
2017-06-16T08:23:21.092Z,76.64
2017-06-16T08:24:31.361Z,76.06
2017-06-16T08:25:41.630Z,76.34
2017-06-16T08:26:51.894Z,75.87
2017-06-16T08:28:02.165Z,76.92
2017-06-16T08:29:12.111Z,76.59
2017-06-16T08:30:21.752Z,76.79
2017-06-16T08:31:31.706Z,76.31
2017-06-16T08:32:41.968Z,77.56
2017-06-16T08:33:51.922Z,78.7
2017-06-16T08:35:02.191Z,78.52
2017-06-16T08:36:12.466Z,78.19
2017-06-16T08:37:22.419Z,77.94
2017-06-16T08:38:32.687Z,78.42
2017-06-16T08:39:42.680Z,78.52
2017-06-16T08:40:52.956Z,78.42
2017-06-16T08:42:02.906Z,78.13
2017-06-16T08:43:12.543Z,78.03
2017-06-16T08:44:22.495Z,77.26
2017-06-16T08:45:32.763Z,77.84
2017-06-16T08:46:42.720Z,78.03
2017-06-16T08:47:52.988Z,77.98
2017-06-16T08:49:03.249Z,77.31
2017-06-16T08:50:13.508Z,77.5
2017-06-16T08:51:23.774Z,76.34
2017-06-16T08:52:34.038Z,76.25
2017-06-16T08:53:44.304Z,76.54
2017-06-16T08:54:54.258Z,76.06
2017-06-16T08:56:04.209Z,76.25
2017-06-16T08:57:13.862Z,75.1
2017-06-16T08:58:24.144Z,74.81
2017-06-16T08:59:34.461Z,75.82
2017-06-16T09:00:44.410Z,76.59
2017-06-16T09:01:54.674Z,75.96
2017-06-16T09:03:04.940Z,74.87
2017-06-16T09:04:15.221Z,76.5
2017-06-16T09:05:24.860Z,76.34
2017-06-16T09:06:35.129Z,75.87
2017-06-16T09:07:45.432Z,75
2017-06-16T09:08:55.382Z,75.62
2017-06-16T09:10:05.332Z,73.94
2017-06-16T09:11:15.285Z,75.2
2017-06-16T09:12:25.566Z,74.43
2017-06-16T09:13:35.519Z,75.06
2017-06-16T09:14:45.788Z,74.96
2017-06-16T09:15:56.055Z,76.4
2017-06-16T09:17:06.322Z,75.63
2017-06-16T09:18:15.963Z,77.26
2017-06-16T09:19:25.912Z,76.31
2017-06-16T09:20:36.184Z,75.87
2017-06-16T09:21:46.134Z,74.33
2017-06-16T09:22:56.469Z,74.43
2017-06-16T09:24:06.424Z,75.96
2017-06-16T09:25:16.697Z,76.06
2017-06-16T09:26:26.670Z,75.48
2017-06-16T09:27:36.935Z,75
2017-06-16T09:28:47.200Z,74.77
2017-06-16T09:29:57.467Z,75.54
2017-06-16T09:31:07.737Z,76.21
2017-06-16T09:32:18.005Z,76.25
2017-06-16T09:33:27.958Z,75.77
2017-06-16T09:34:38.229Z,75.04
2017-06-16T09:35:48.504Z,74.27
2017-06-16T09:36:58.776Z,73.54
2017-06-16T09:38:08.728Z,72
2017-06-16T09:39:18.998Z,72.86
2017-06-16T09:40:28.955Z,74.37
2017-06-16T09:41:39.264Z,73.41
2017-06-16T09:42:49.532Z,73.79
2017-06-16T09:43:59.799Z,74.52
2017-06-16T09:45:09.762Z,74.9
2017-06-16T09:46:20.033Z,74.9
2017-06-16T09:47:30.305Z,75.67
2017-06-16T09:48:40.578Z,75.9
2017-06-16T09:49:50.849Z,74.75
2017-06-16T09:51:01.118Z,74.55
2017-06-16T09:52:11.387Z,74.37
2017-06-16T09:53:21.057Z,74.21
2017-06-16T09:54:31.359Z,74.02
2017-06-16T09:55:41.627Z,74.02
2017-06-16T09:56:51.578Z,73.19
2017-06-16T09:58:01.531Z,73.19
2017-06-16T09:59:11.487Z,72.42
2017-06-16T10:00:21.129Z,72.74
2017-06-16T10:01:31.399Z,71.97
2017-06-16T10:02:41.667Z,70.72
2017-06-16T10:03:51.938Z,72.23
2017-06-16T10:05:01.575Z,72.07
2017-06-16T10:06:11.221Z,71.01
2017-06-16T10:07:21.172Z,70.34
2017-06-16T10:08:31.155Z,70.09
2017-06-16T10:09:41.422Z,70.28
2017-06-16T10:10:51.689Z,69.93
2017-06-16T10:12:01.954Z,68.77
2017-06-16T10:13:11.918Z,68.38
2017-06-16T10:14:21.599Z,68.13
2017-06-16T10:15:31.556Z,68.71
2017-06-16T10:16:41.508Z,68.04
2017-06-16T10:17:51.775Z,67.65
2017-06-16T10:19:01.733Z,67.74
2017-06-16T10:20:11.381Z,68.13
2017-06-16T10:21:21.655Z,68.52
2017-06-16T10:22:31.925Z,68.58
2017-06-16T10:23:41.883Z,67.94
2017-06-16T10:24:52.154Z,67.55
2017-06-16T10:26:02.156Z,67.46
2017-06-16T10:27:12.113Z,66.97
2017-06-16T10:28:22.390Z,67.65
2017-06-16T10:29:32.666Z,67.07
2017-06-16T10:30:42.946Z,67.26
2017-06-16T10:31:53.214Z,67.65
2017-06-16T10:33:03.477Z,66.11
2017-06-16T10:34:13.435Z,67.74
2017-06-16T10:35:23.699Z,67.55
2017-06-16T10:36:33.654Z,68.04
2017-06-16T10:37:43.916Z,66.97
2017-06-16T10:38:53.873Z,67.16
2017-06-16T10:40:04.175Z,67.61
2017-06-16T10:41:13.813Z,68
2017-06-16T10:42:23.783Z,68.87
2017-06-16T10:43:33.739Z,69.06
2017-06-16T10:44:44.004Z,69.35
2017-06-16T10:45:53.962Z,68.96
2017-06-16T10:47:04.232Z,70.12
2017-06-16T10:48:14.502Z,70.41
2017-06-16T10:49:24.773Z,70.31
2017-06-16T10:50:35.037Z,70.09
2017-06-16T10:51:45.309Z,70.47
2017-06-16T10:52:55.584Z,70.56
2017-06-16T10:54:05.855Z,71.78
2017-06-16T10:55:16.123Z,71.49
2017-06-16T10:56:26.090Z,73.13
2017-06-16T10:57:36.359Z,73.77
2017-06-16T10:58:46.622Z,75.37
2017-06-16T10:59:56.888Z,75.17
2017-06-16T11:01:06.838Z,73.92
2017-06-16T11:02:17.107Z,74.79
2017-06-16T11:03:27.370Z,74.21
2017-06-16T11:04:37.638Z,74.4
2017-06-16T11:05:47.909Z,75.17
2017-06-16T11:06:58.173Z,74.88
2017-06-16T11:08:07.813Z,75.37
2017-06-16T11:09:17.761Z,74.5
2017-06-16T11:10:27.717Z,74.54
2017-06-16T11:11:37.999Z,74.54
2017-06-16T11:12:48.267Z,75.02
2017-06-16T11:13:58.542Z,75.98
2017-06-16T11:15:08.184Z,74.44
2017-06-16T11:16:18.492Z,74.96
2017-06-16T11:17:28.755Z,74.38
2017-06-16T11:18:38.790Z,74.48
2017-06-16T11:19:48.432Z,74.57
2017-06-16T11:20:58.695Z,74.48
2017-06-16T11:22:08.335Z,73.36
2017-06-16T11:23:17.973Z,73.07
2017-06-16T11:24:28.239Z,73.55
2017-06-16T11:25:38.552Z,74.22
2017-06-16T11:26:48.508Z,73.46
2017-06-16T11:27:58.794Z,73.39
2017-06-16T11:29:08.748Z,72.33
2017-06-16T11:30:19.018Z,72.33
2017-06-16T11:31:28.971Z,71.98
2017-06-16T11:32:39.240Z,70.73
2017-06-16T11:33:49.504Z,70.73
2017-06-16T11:34:59.772Z,70.54
2017-06-16T11:36:10.047Z,70.64
2017-06-16T11:37:20.317Z,70.35
2017-06-16T11:38:30.584Z,70.54
2017-06-16T11:39:40.862Z,71.31
2017-06-16T11:40:50.816Z,71.73
2017-06-16T11:42:00.764Z,71.83
2017-06-16T11:43:10.784Z,71.7
2017-06-16T11:44:21.061Z,70.15
2017-06-16T11:45:31.327Z,70.25
2017-06-16T11:46:41.603Z,70.83
2017-06-16T11:47:51.559Z,72.08
2017-06-16T11:49:01.827Z,71.02
2017-06-16T11:50:11.787Z,72.08
2017-06-16T11:51:22.056Z,71.98
2017-06-16T11:52:32.016Z,72.08
2017-06-16T11:53:41.968Z,72.08
2017-06-16T11:54:52.235Z,71.89
2017-06-16T11:56:02.505Z,71.95
2017-06-16T11:57:12.463Z,72.43
2017-06-16T11:58:22.418Z,71.85
2017-06-16T11:59:32.685Z,72.14
2017-06-16T12:00:42.952Z,71.72
2017-06-16T12:01:53.222Z,71.43
2017-06-16T12:03:03.494Z,73.07
2017-06-16T12:04:13.137Z,72.84
2017-06-16T12:05:23.408Z,72.84
2017-06-16T12:06:33.693Z,72.74
2017-06-16T12:07:43.339Z,72.26
2017-06-16T12:08:53.618Z,71.59
2017-06-16T12:10:03.571Z,71.78
2017-06-16T12:11:13.531Z,72.84
2017-06-16T12:12:23.798Z,72.84
2017-06-16T12:13:34.070Z,73.09
2017-06-16T12:14:44.343Z,71.88
2017-06-16T12:15:54.618Z,72.42
2017-06-16T12:17:04.580Z,71.94
2017-06-16T12:18:14.537Z,71.69
2017-06-16T12:19:24.806Z,72.36
2017-06-16T12:20:34.767Z,71.75
2017-06-16T12:21:45.035Z,74.29
2017-06-16T12:22:55.309Z,73.99
2017-06-16T12:24:05.580Z,71.78
2017-06-16T12:25:15.847Z,71.78
2017-06-16T12:26:26.113Z,71.59
2017-06-16T12:27:36.383Z,71.3
2017-06-16T12:28:46.656Z,70.05
2017-06-16T12:29:56.923Z,70.62
2017-06-16T12:31:06.874Z,70.05
2017-06-16T12:32:17.140Z,70.15
2017-06-16T12:33:27.408Z,71.11
2017-06-16T12:34:37.672Z,70.82
2017-06-16T12:35:47.941Z,71.11
2017-06-16T12:36:57.892Z,68.64
2017-06-16T12:38:07.848Z,69.02
2017-06-16T12:39:18.113Z,69.28
2017-06-16T12:40:28.379Z,67.77
2017-06-16T12:41:38.649Z,67.97
2017-06-16T12:42:48.919Z,69.12
2017-06-16T12:43:59.190Z,67.39
2017-06-16T12:45:08.518Z,67.97
2017-06-16T12:46:18.788Z,68.03
2017-06-16T12:47:28.745Z,70.56
2017-06-16T12:48:38.705Z,69.79
2017-06-16T12:49:48.975Z,68.93
2017-06-16T12:50:58.924Z,68.54
2017-06-16T12:52:08.580Z,69.31
2017-06-16T12:53:18.852Z,68.84
2017-06-16T12:54:28.803Z,67.39
2017-06-16T12:55:39.085Z,68.35
2017-06-16T12:56:49.359Z,69.02
2017-06-16T12:57:59.624Z,67.77
2017-06-16T12:59:08.960Z,68.26
2017-06-16T13:00:18.918Z,67.29
2017-06-16T13:01:29.189Z,68.16
2017-06-16T13:02:39.144Z,67.68
2017-06-16T13:03:49.422Z,67.03
2017-06-16T13:04:59.689Z,66.17
2017-06-16T13:06:09.328Z,67.61
2017-06-16T13:07:19.618Z,67.23
2017-06-16T13:08:29.572Z,67.42
2017-06-16T13:09:39.844Z,67.33
2017-06-16T13:10:50.119Z,65.88
2017-06-16T13:12:00.402Z,67.03
2017-06-16T13:13:10.747Z,66.17
2017-06-16T13:14:21.185Z,67.03
2017-06-16T13:15:31.990Z,66.2
2017-06-16T13:16:42.571Z,66.01
2017-06-16T13:17:52.863Z,66.59
2017-06-16T13:19:03.140Z,65.63
2017-06-16T13:20:13.091Z,65.72
2017-06-16T13:21:23.358Z,65.33
2017-06-16T13:22:33.322Z,66.46
2017-06-16T13:23:43.583Z,66.07
2017-06-16T13:24:53.538Z,64.76
2017-06-16T13:26:03.816Z,66.01
2017-06-16T13:27:13.761Z,65.91
2017-06-16T13:28:23.712Z,65.33
2017-06-16T13:29:33.977Z,67.36
2017-06-16T13:30:44.247Z,65.81
2017-06-16T13:31:53.887Z,66.39
2017-06-16T13:33:03.848Z,67.16
2017-06-16T13:34:13.802Z,68.04
2017-06-16T13:35:23.754Z,68.8
2017-06-16T13:36:34.020Z,68.32
2017-06-16T13:37:44.287Z,68.32
2017-06-16T13:38:54.571Z,68.99
2017-06-16T13:40:04.523Z,69.48
2017-06-16T13:41:14.795Z,67.84
2017-06-16T13:42:25.070Z,67.84
2017-06-16T13:43:35.335Z,68.61
2017-06-16T13:44:45.291Z,67.55
2017-06-16T13:45:55.245Z,68.52
2017-06-16T13:47:05.520Z,66.11
2017-06-16T13:48:15.788Z,66.78
2017-06-16T13:49:25.743Z,65.78
2017-06-16T13:50:36.007Z,66.07
2017-06-16T13:51:46.273Z,67.61
2017-06-16T13:52:56.534Z,66.94
2017-06-16T13:54:06.169Z,67.29
2017-06-16T13:55:16.122Z,67.71
2017-06-16T13:56:26.384Z,67.71
2017-06-16T13:57:36.675Z,66.65
2017-06-16T13:58:46.942Z,66.94
2017-06-16T13:59:57.219Z,67.61
2017-06-16T14:01:07.483Z,66.36
2017-06-16T14:02:17.747Z,66.65
2017-06-16T14:03:28.010Z,68.29
2017-06-16T14:04:38.275Z,68
2017-06-16T14:05:48.238Z,67.26
2017-06-16T14:06:58.500Z,66.11
2017-06-16T14:08:08.131Z,66.3
2017-06-16T14:09:18.137Z,65.43
2017-06-16T14:10:28.411Z,66.3
2017-06-16T14:11:38.680Z,65.91
2017-06-16T14:12:48.943Z,65.63
2017-06-16T14:13:59.207Z,66.97
2017-06-16T14:15:08.844Z,66.49
2017-06-16T14:16:19.122Z,66.11
2017-06-16T14:17:29.079Z,64.76
2017-06-16T14:18:39.031Z,65.63
2017-06-16T14:19:49.296Z,65.43
2017-06-16T14:20:59.242Z,65.59
2017-06-16T14:22:08.880Z,65.53
2017-06-16T14:23:19.145Z,66.3
2017-06-16T14:24:29.100Z,65.14
2017-06-16T14:25:39.369Z,65.72
2017-06-16T14:26:49.321Z,65.72
2017-06-16T14:27:59.279Z,67.07
2017-06-16T14:29:09.558Z,65.63
2017-06-16T14:30:19.846Z,65.91
2017-06-16T14:31:30.114Z,65.81
2017-06-16T14:32:40.384Z,65.69
2017-06-16T14:33:50.336Z,67.03
2017-06-16T14:35:00.298Z,65.88
2017-06-16T14:36:10.560Z,67.71
2017-06-16T14:37:20.823Z,67.03
2017-06-16T14:38:31.085Z,66.49
2017-06-16T14:39:41.373Z,67.81
2017-06-16T14:40:51.335Z,67.13
2017-06-16T14:42:01.607Z,66.46
2017-06-16T14:43:11.245Z,67.42
2017-06-16T14:44:21.513Z,67.52
2017-06-16T14:45:31.463Z,68.87
2017-06-16T14:46:41.731Z,67.81
2017-06-16T14:47:51.681Z,68.19
2017-06-16T14:49:01.632Z,68.29
2017-06-16T14:50:11.581Z,68.16
2017-06-16T14:51:21.842Z,68.54
2017-06-16T14:52:32.105Z,68.93
2017-06-16T14:53:42.365Z,69.51
2017-06-16T14:54:52.318Z,70.47
2017-06-16T14:56:02.272Z,69.6
2017-06-16T14:57:12.227Z,70.18
2017-06-16T14:58:22.509Z,70.47
2017-06-16T14:59:32.775Z,70.56
2017-06-16T15:00:43.040Z,70.72
2017-06-16T15:01:53.328Z,71.24
2017-06-16T15:03:03.595Z,71.2
2017-06-16T15:04:13.546Z,71.11
2017-06-16T15:05:23.497Z,70.82
2017-06-16T15:06:33.762Z,70.34